sensor_id;sensor_type;location;lat;lon;timestamp;temperature;humidity
15203;DHT22;7702;51.046;5.184;2023-04-25T00:00:21;6.70;99.90
15203;DHT22;7702;51.046;5.184;2023-04-25T00:02:47;6.60;99.90
15203;DHT22;7702;51.046;5.184;2023-04-25T00:05:13;6.60;99.90
15203;DHT22;7702;51.046;5.184;2023-04-25T00:07:40;6.60;99.90
15203;DHT22;7702;51.046;5.184;2023-04-25T00:10:08;6.80;99.90
15203;DHT22;7702;51.046;5.184;2023-04-25T00:12:34;6.80;99.90
15203;DHT22;7702;51.046;5.184;2023-04-25T00:15:01;6.80;99.90
15203;DHT22;7702;51.046;5.184;2023-04-25T00:17:27;6.80;99.90
15203;DHT22;7702;51.046;5.184;2023-04-25T00:19:53;6.80;99.90
15203;DHT22;7702;51.046;5.184;2023-04-25T00:22:20;6.90;99.90
15203;DHT22;7702;51.046;5.184;2023-04-25T00:24:46;6.90;99.90
15203;DHT22;7702;51.046;5.184;2023-04-25T00:27:12;7.00;99.90
15203;DHT22;7702;51.046;5.184;2023-04-25T00:29:37;7.10;99.90
15203;DHT22;7702;51.046;5.184;2023-04-25T00:32:03;7.10;99.90
15203;DHT22;7702;51.046;5.184;2023-04-25T00:34:29;7.10;99.90
15203;DHT22;7702;51.046;5.184;2023-04-25T00:36:54;7.10;99.90
15203;DHT22;7702;51.046;5.184;2023-04-25T00:39:20;7.20;99.90
15203;DHT22;7702;51.046;5.184;2023-04-25T00:41:46;7.20;99.90
15203;DHT22;7702;51.046;5.184;2023-04-25T00:44:12;7.20;99.90
15203;DHT22;7702;51.046;5.184;2023-04-25T00:46:39;7.20;99.90
15203;DHT22;7702;51.046;5.184;2023-04-25T00:49:05;7.30;99.90
15203;DHT22;7702;51.046;5.184;2023-04-25T00:51:31;7.40;99.90
15203;DHT22;7702;51.046;5.184;2023-04-25T00:53:58;7.40;99.90
15203;DHT22;7702;51.046;5.184;2023-04-25T00:56:24;7.30;99.90
15203;DHT22;7702;51.046;5.184;2023-04-25T00:58:53;7.30;99.90
15203;DHT22;7702;51.046;5.184;2023-04-25T01:01:21;7.30;99.90
15203;DHT22;7702;51.046;5.184;2023-04-25T01:03:47;7.30;99.90
15203;DHT22;7702;51.046;5.184;2023-04-25T01:06:16;7.30;99.90
15203;DHT22;7702;51.046;5.184;2023-04-25T01:08:41;7.30;99.90
15203;DHT22;7702;51.046;5.184;2023-04-25T01:11:07;7.30;99.90
15203;DHT22;7702;51.046;5.184;2023-04-25T01:13:34;7.40;99.90
15203;DHT22;7702;51.046;5.184;2023-04-25T01:16:00;7.40;99.90
15203;DHT22;7702;51.046;5.184;2023-04-25T01:18:26;7.40;99.90
15203;DHT22;7702;51.046;5.184;2023-04-25T01:20:52;7.40;99.90
15203;DHT22;7702;51.046;5.184;2023-04-25T01:23:20;7.40;99.90
15203;DHT22;7702;51.046;5.184;2023-04-25T01:25:47;7.40;99.90
15203;DHT22;7702;51.046;5.184;2023-04-25T01:28:13;7.40;99.90
15203;DHT22;7702;51.046;5.184;2023-04-25T01:30:39;7.40;99.90
15203;DHT22;7702;51.046;5.184;2023-04-25T01:33:04;7.40;99.90
15203;DHT22;7702;51.046;5.184;2023-04-25T01:35:31;7.40;99.90
15203;DHT22;7702;51.046;5.184;2023-04-25T01:37:57;7.30;99.90
15203;DHT22;7702;51.046;5.184;2023-04-25T01:40:24;7.30;99.90
15203;DHT22;7702;51.046;5.184;2023-04-25T01:42:51;7.30;99.90
15203;DHT22;7702;51.046;5.184;2023-04-25T01:45:17;7.30;99.90
15203;DHT22;7702;51.046;5.184;2023-04-25T01:47:43;7.30;99.90
15203;DHT22;7702;51.046;5.184;2023-04-25T01:50:14;7.20;99.90
15203;DHT22;7702;51.046;5.184;2023-04-25T01:52:40;7.30;99.90
15203;DHT22;7702;51.046;5.184;2023-04-25T01:55:06;7.30;99.90
15203;DHT22;7702;51.046;5.184;2023-04-25T01:57:32;7.20;99.90
15203;DHT22;7702;51.046;5.184;2023-04-25T02:00:00;7.30;99.90
15203;DHT22;7702;51.046;5.184;2023-04-25T02:02:26;7.20;99.90
15203;DHT22;7702;51.046;5.184;2023-04-25T02:04:52;7.20;99.90
15203;DHT22;7702;51.046;5.184;2023-04-25T02:07:18;7.10;99.90
15203;DHT22;7702;51.046;5.184;2023-04-25T02:09:44;7.20;99.90
15203;DHT22;7702;51.046;5.184;2023-04-25T02:12:10;7.20;99.90
15203;DHT22;7702;51.046;5.184;2023-04-25T02:14:35;7.20;99.90
15203;DHT22;7702;51.046;5.184;2023-04-25T02:17:01;7.20;99.90
15203;DHT22;7702;51.046;5.184;2023-04-25T02:19:27;7.20;99.90
15203;DHT22;7702;51.046;5.184;2023-04-25T02:21:53;7.20;99.90
15203;DHT22;7702;51.046;5.184;2023-04-25T02:24:19;7.20;99.90
15203;DHT22;7702;51.046;5.184;2023-04-25T02:26:45;7.10;99.90
15203;DHT22;7702;51.046;5.184;2023-04-25T02:29:12;7.10;99.90
15203;DHT22;7702;51.046;5.184;2023-04-25T02:31:38;7.00;99.90
15203;DHT22;7702;51.046;5.184;2023-04-25T02:34:04;7.00;99.90
15203;DHT22;7702;51.046;5.184;2023-04-25T02:36:30;6.90;99.90
15203;DHT22;7702;51.046;5.184;2023-04-25T02:38:59;6.90;99.90
15203;DHT22;7702;51.046;5.184;2023-04-25T02:41:26;6.90;99.90
15203;DHT22;7702;51.046;5.184;2023-04-25T02:43:51;6.90;99.90
15203;DHT22;7702;51.046;5.184;2023-04-25T02:46:17;6.80;99.90
15203;DHT22;7702;51.046;5.184;2023-04-25T02:48:43;6.80;99.90
15203;DHT22;7702;51.046;5.184;2023-04-25T02:51:09;6.80;99.90
15203;DHT22;7702;51.046;5.184;2023-04-25T02:53:34;6.80;99.90
15203;DHT22;7702;51.046;5.184;2023-04-25T02:56:01;6.80;99.90
15203;DHT22;7702;51.046;5.184;2023-04-25T02:58:26;6.80;99.90
15203;DHT22;7702;51.046;5.184;2023-04-25T03:00:53;6.90;99.90
15203;DHT22;7702;51.046;5.184;2023-04-25T03:03:20;6.90;99.90
15203;DHT22;7702;51.046;5.184;2023-04-25T03:05:48;6.90;99.90
15203;DHT22;7702;51.046;5.184;2023-04-25T03:08:14;6.90;99.90
15203;DHT22;7702;51.046;5.184;2023-04-25T03:10:40;6.90;99.90
15203;DHT22;7702;51.046;5.184;2023-04-25T03:13:05;6.90;99.90
15203;DHT22;7702;51.046;5.184;2023-04-25T03:15:31;6.90;99.90
15203;DHT22;7702;51.046;5.184;2023-04-25T03:17:57;7.00;99.90
15203;DHT22;7702;51.046;5.184;2023-04-25T03:20:22;7.00;99.90
15203;DHT22;7702;51.046;5.184;2023-04-25T03:22:48;7.00;99.90
15203;DHT22;7702;51.046;5.184;2023-04-25T03:25:14;7.00;99.90
15203;DHT22;7702;51.046;5.184;2023-04-25T03:27:40;7.00;99.90
15203;DHT22;7702;51.046;5.184;2023-04-25T03:30:06;7.10;99.90
15203;DHT22;7702;51.046;5.184;2023-04-25T03:32:33;7.00;99.90
15203;DHT22;7702;51.046;5.184;2023-04-25T03:34:59;7.10;99.90
15203;DHT22;7702;51.046;5.184;2023-04-25T03:37:25;7.10;99.90
15203;DHT22;7702;51.046;5.184;2023-04-25T03:39:50;7.00;99.90
15203;DHT22;7702;51.046;5.184;2023-04-25T03:42:17;6.80;99.90
15203;DHT22;7702;51.046;5.184;2023-04-25T03:44:43;6.70;99.90
15203;DHT22;7702;51.046;5.184;2023-04-25T03:47:09;6.60;99.90
15203;DHT22;7702;51.046;5.184;2023-04-25T03:49:35;6.50;99.90
15203;DHT22;7702;51.046;5.184;2023-04-25T03:52:01;6.50;99.90
15203;DHT22;7702;51.046;5.184;2023-04-25T03:54:27;6.40;99.90
15203;DHT22;7702;51.046;5.184;2023-04-25T03:56:53;6.40;99.90
15203;DHT22;7702;51.046;5.184;2023-04-25T03:59:19;6.30;99.90
15203;DHT22;7702;51.046;5.184;2023-04-25T04:01:44;6.20;99.90
15203;DHT22;7702;51.046;5.184;2023-04-25T04:04:10;6.30;99.90
15203;DHT22;7702;51.046;5.184;2023-04-25T04:06:36;6.30;99.90
15203;DHT22;7702;51.046;5.184;2023-04-25T04:09:02;6.30;99.90
15203;DHT22;7702;51.046;5.184;2023-04-25T04:11:28;6.30;99.90
15203;DHT22;7702;51.046;5.184;2023-04-25T04:13:54;6.40;99.90
15203;DHT22;7702;51.046;5.184;2023-04-25T04:16:20;6.30;99.90
15203;DHT22;7702;51.046;5.184;2023-04-25T04:18:46;6.30;99.90
15203;DHT22;7702;51.046;5.184;2023-04-25T04:21:12;6.30;99.90
15203;DHT22;7702;51.046;5.184;2023-04-25T04:23:38;6.30;99.90
15203;DHT22;7702;51.046;5.184;2023-04-25T04:26:03;6.40;99.90
15203;DHT22;7702;51.046;5.184;2023-04-25T04:28:29;6.40;99.90
15203;DHT22;7702;51.046;5.184;2023-04-25T04:30:55;6.40;99.90
15203;DHT22;7702;51.046;5.184;2023-04-25T04:33:20;6.40;99.90
15203;DHT22;7702;51.046;5.184;2023-04-25T04:35:46;6.40;99.90
15203;DHT22;7702;51.046;5.184;2023-04-25T04:38:13;6.40;99.90
15203;DHT22;7702;51.046;5.184;2023-04-25T04:40:41;6.50;99.90
15203;DHT22;7702;51.046;5.184;2023-04-25T04:43:09;6.50;99.90
15203;DHT22;7702;51.046;5.184;2023-04-25T04:45:36;6.50;99.90
15203;DHT22;7702;51.046;5.184;2023-04-25T04:48:05;6.50;99.90
15203;DHT22;7702;51.046;5.184;2023-04-25T04:50:31;6.50;99.90
15203;DHT22;7702;51.046;5.184;2023-04-25T04:52:58;6.50;99.90
15203;DHT22;7702;51.046;5.184;2023-04-25T04:55:23;6.60;99.90
15203;DHT22;7702;51.046;5.184;2023-04-25T04:57:49;6.50;99.90
15203;DHT22;7702;51.046;5.184;2023-04-25T05:00:16;6.60;99.90
15203;DHT22;7702;51.046;5.184;2023-04-25T05:02:42;6.60;99.90
15203;DHT22;7702;51.046;5.184;2023-04-25T05:05:08;6.50;99.90
15203;DHT22;7702;51.046;5.184;2023-04-25T05:07:34;6.60;99.90
15203;DHT22;7702;51.046;5.184;2023-04-25T05:10:00;6.60;99.90
15203;DHT22;7702;51.046;5.184;2023-04-25T05:12:25;6.70;99.90
15203;DHT22;7702;51.046;5.184;2023-04-25T05:14:51;6.80;99.90
15203;DHT22;7702;51.046;5.184;2023-04-25T05:17:17;6.80;99.90
15203;DHT22;7702;51.046;5.184;2023-04-25T05:19:42;6.90;99.90
15203;DHT22;7702;51.046;5.184;2023-04-25T05:22:08;6.90;99.90
15203;DHT22;7702;51.046;5.184;2023-04-25T05:24:34;6.80;99.90
15203;DHT22;7702;51.046;5.184;2023-04-25T05:26:59;7.00;99.90
15203;DHT22;7702;51.046;5.184;2023-04-25T05:29:25;7.00;99.90
15203;DHT22;7702;51.046;5.184;2023-04-25T05:31:51;6.90;99.90
15203;DHT22;7702;51.046;5.184;2023-04-25T05:34:16;7.00;99.90
15203;DHT22;7702;51.046;5.184;2023-04-25T05:36:42;7.00;99.90
15203;DHT22;7702;51.046;5.184;2023-04-25T05:39:08;6.90;99.90
15203;DHT22;7702;51.046;5.184;2023-04-25T05:41:34;7.00;99.90
15203;DHT22;7702;51.046;5.184;2023-04-25T05:44:00;7.00;99.90
15203;DHT22;7702;51.046;5.184;2023-04-25T05:46:26;7.00;99.90
15203;DHT22;7702;51.046;5.184;2023-04-25T05:48:51;7.10;99.90
15203;DHT22;7702;51.046;5.184;2023-04-25T05:51:17;7.10;99.90
15203;DHT22;7702;51.046;5.184;2023-04-25T05:53:43;7.20;99.90
15203;DHT22;7702;51.046;5.184;2023-04-25T05:56:09;7.20;99.90
15203;DHT22;7702;51.046;5.184;2023-04-25T05:58:35;7.30;99.90
15203;DHT22;7702;51.046;5.184;2023-04-25T06:01:01;7.30;99.90
15203;DHT22;7702;51.046;5.184;2023-04-25T06:03:28;7.30;99.90
15203;DHT22;7702;51.046;5.184;2023-04-25T06:05:53;7.30;99.90
15203;DHT22;7702;51.046;5.184;2023-04-25T06:08:19;7.40;99.90
15203;DHT22;7702;51.046;5.184;2023-04-25T06:10:45;7.40;99.90
15203;DHT22;7702;51.046;5.184;2023-04-25T06:13:11;7.40;99.90
15203;DHT22;7702;51.046;5.184;2023-04-25T06:15:36;7.50;99.90
15203;DHT22;7702;51.046;5.184;2023-04-25T06:18:02;7.50;99.90
15203;DHT22;7702;51.046;5.184;2023-04-25T06:20:28;7.50;99.90
15203;DHT22;7702;51.046;5.184;2023-04-25T06:22:54;7.60;99.90
15203;DHT22;7702;51.046;5.184;2023-04-25T06:25:20;7.50;99.90
15203;DHT22;7702;51.046;5.184;2023-04-25T06:27:46;7.50;99.90
15203;DHT22;7702;51.046;5.184;2023-04-25T06:30:12;7.60;99.90
15203;DHT22;7702;51.046;5.184;2023-04-25T06:32:38;7.60;99.90
15203;DHT22;7702;51.046;5.184;2023-04-25T06:35:04;7.60;99.90
15203;DHT22;7702;51.046;5.184;2023-04-25T06:37:30;7.80;99.90
15203;DHT22;7702;51.046;5.184;2023-04-25T06:39:56;8.00;99.90
15203;DHT22;7702;51.046;5.184;2023-04-25T06:42:22;8.00;99.90
15203;DHT22;7702;51.046;5.184;2023-04-25T06:44:47;8.00;99.90
15203;DHT22;7702;51.046;5.184;2023-04-25T06:47:14;8.00;99.90
15203;DHT22;7702;51.046;5.184;2023-04-25T06:49:40;8.10;99.90
15203;DHT22;7702;51.046;5.184;2023-04-25T06:52:06;7.90;99.90
15203;DHT22;7702;51.046;5.184;2023-04-25T06:54:32;7.80;99.90
15203;DHT22;7702;51.046;5.184;2023-04-25T06:56:58;7.90;99.90
15203;DHT22;7702;51.046;5.184;2023-04-25T06:59:26;8.00;99.90
15203;DHT22;7702;51.046;5.184;2023-04-25T07:01:52;8.10;99.90
15203;DHT22;7702;51.046;5.184;2023-04-25T07:04:18;8.20;99.90
15203;DHT22;7702;51.046;5.184;2023-04-25T07:06:44;8.30;99.90
15203;DHT22;7702;51.046;5.184;2023-04-25T07:09:10;8.50;99.90
15203;DHT22;7702;51.046;5.184;2023-04-25T07:11:36;8.70;99.90
15203;DHT22;7702;51.046;5.184;2023-04-25T07:14:02;8.90;99.90
15203;DHT22;7702;51.046;5.184;2023-04-25T07:16:27;9.10;99.90
15203;DHT22;7702;51.046;5.184;2023-04-25T07:18:53;9.20;99.90
15203;DHT22;7702;51.046;5.184;2023-04-25T07:21:19;9.40;99.90
15203;DHT22;7702;51.046;5.184;2023-04-25T07:23:45;9.30;99.90
15203;DHT22;7702;51.046;5.184;2023-04-25T07:26:11;9.20;99.90
15203;DHT22;7702;51.046;5.184;2023-04-25T07:28:37;9.10;99.90
15203;DHT22;7702;51.046;5.184;2023-04-25T07:31:03;9.00;99.90
15203;DHT22;7702;51.046;5.184;2023-04-25T07:33:29;8.90;99.90
15203;DHT22;7702;51.046;5.184;2023-04-25T07:35:55;9.00;99.90
15203;DHT22;7702;51.046;5.184;2023-04-25T07:38:21;9.20;99.90
15203;DHT22;7702;51.046;5.184;2023-04-25T07:40:50;9.50;99.90
15203;DHT22;7702;51.046;5.184;2023-04-25T07:43:16;9.40;99.90
15203;DHT22;7702;51.046;5.184;2023-04-25T07:45:43;9.40;99.90
15203;DHT22;7702;51.046;5.184;2023-04-25T07:48:09;9.40;99.90
15203;DHT22;7702;51.046;5.184;2023-04-25T07:50:35;9.20;99.90
15203;DHT22;7702;51.046;5.184;2023-04-25T07:53:01;9.20;99.90
15203;DHT22;7702;51.046;5.184;2023-04-25T07:55:27;9.50;99.90
15203;DHT22;7702;51.046;5.184;2023-04-25T07:57:53;9.50;99.90
15203;DHT22;7702;51.046;5.184;2023-04-25T08:00:19;9.60;99.90
15203;DHT22;7702;51.046;5.184;2023-04-25T08:02:45;9.40;99.90
15203;DHT22;7702;51.046;5.184;2023-04-25T08:05:11;9.30;99.90
15203;DHT22;7702;51.046;5.184;2023-04-25T08:07:40;9.10;99.90
15203;DHT22;7702;51.046;5.184;2023-04-25T08:10:07;8.80;99.90
15203;DHT22;7702;51.046;5.184;2023-04-25T08:12:33;8.80;99.90
15203;DHT22;7702;51.046;5.184;2023-04-25T08:14:58;8.70;99.90
15203;DHT22;7702;51.046;5.184;2023-04-25T08:17:24;8.60;99.90
15203;DHT22;7702;51.046;5.184;2023-04-25T08:19:50;8.40;99.90
15203;DHT22;7702;51.046;5.184;2023-04-25T08:22:16;8.40;99.90
15203;DHT22;7702;51.046;5.184;2023-04-25T08:24:42;8.20;99.90
15203;DHT22;7702;51.046;5.184;2023-04-25T08:27:07;8.30;99.90
15203;DHT22;7702;51.046;5.184;2023-04-25T08:29:34;8.50;99.90
15203;DHT22;7702;51.046;5.184;2023-04-25T08:32:00;8.60;99.90
15203;DHT22;7702;51.046;5.184;2023-04-25T08:34:26;8.50;99.90
15203;DHT22;7702;51.046;5.184;2023-04-25T08:36:52;8.50;99.90
15203;DHT22;7702;51.046;5.184;2023-04-25T08:39:18;8.50;99.90
15203;DHT22;7702;51.046;5.184;2023-04-25T08:41:44;8.50;99.90
15203;DHT22;7702;51.046;5.184;2023-04-25T08:44:11;8.60;99.90
15203;DHT22;7702;51.046;5.184;2023-04-25T08:46:40;8.70;99.90
15203;DHT22;7702;51.046;5.184;2023-04-25T08:49:07;8.80;99.90
15203;DHT22;7702;51.046;5.184;2023-04-25T08:51:36;9.30;99.90
15203;DHT22;7702;51.046;5.184;2023-04-25T08:54:11;9.60;99.90
15203;DHT22;7702;51.046;5.184;2023-04-25T08:56:45;10.70;99.90
15203;DHT22;7702;51.046;5.184;2023-04-25T08:59:13;11.40;99.90
15203;DHT22;7702;51.046;5.184;2023-04-25T09:01:39;11.60;99.90
15203;DHT22;7702;51.046;5.184;2023-04-25T09:04:05;11.40;99.90
15203;DHT22;7702;51.046;5.184;2023-04-25T09:06:31;10.90;99.90
15203;DHT22;7702;51.046;5.184;2023-04-25T09:09:04;10.60;99.90
15203;DHT22;7702;51.046;5.184;2023-04-25T09:11:32;10.60;99.90
15203;DHT22;7702;51.046;5.184;2023-04-25T09:14:20;10.70;99.90
15203;DHT22;7702;51.046;5.184;2023-04-25T09:19:22;11.70;99.90
15203;DHT22;7702;51.046;5.184;2023-04-25T09:21:53;11.60;99.90
15203;DHT22;7702;51.046;5.184;2023-04-25T09:24:34;11.60;99.90
15203;DHT22;7702;51.046;5.184;2023-04-25T09:27:07;11.50;99.90
15203;DHT22;7702;51.046;5.184;2023-04-25T09:29:38;11.60;99.90
15203;DHT22;7702;51.046;5.184;2023-04-25T09:32:23;11.90;99.90
15203;DHT22;7702;51.046;5.184;2023-04-25T09:34:54;12.30;99.90
15203;DHT22;7702;51.046;5.184;2023-04-25T09:37:20;11.70;99.90
15203;DHT22;7702;51.046;5.184;2023-04-25T09:39:48;11.90;99.90
15203;DHT22;7702;51.046;5.184;2023-04-25T09:42:15;11.70;99.90
15203;DHT22;7702;51.046;5.184;2023-04-25T09:44:45;11.40;99.90
15203;DHT22;7702;51.046;5.184;2023-04-25T09:47:13;11.70;99.90
15203;DHT22;7702;51.046;5.184;2023-04-25T09:49:40;11.80;99.90
15203;DHT22;7702;51.046;5.184;2023-04-25T09:52:13;11.20;99.90
15203;DHT22;7702;51.046;5.184;2023-04-25T09:54:40;10.70;99.90
15203;DHT22;7702;51.046;5.184;2023-04-25T09:57:20;10.20;99.90
15203;DHT22;7702;51.046;5.184;2023-04-25T09:59:48;9.50;99.90
15203;DHT22;7702;51.046;5.184;2023-04-25T10:02:17;9.30;99.90
15203;DHT22;7702;51.046;5.184;2023-04-25T10:04:47;9.00;99.90
15203;DHT22;7702;51.046;5.184;2023-04-25T10:07:13;8.80;99.90
15203;DHT22;7702;51.046;5.184;2023-04-25T10:09:40;8.80;99.90
15203;DHT22;7702;51.046;5.184;2023-04-25T10:12:07;8.80;99.90
15203;DHT22;7702;51.046;5.184;2023-04-25T10:14:34;8.50;99.90
15203;DHT22;7702;51.046;5.184;2023-04-25T10:17:00;8.60;99.90
15203;DHT22;7702;51.046;5.184;2023-04-25T10:19:27;8.50;99.90
15203;DHT22;7702;51.046;5.184;2023-04-25T10:24:28;8.70;99.90
15203;DHT22;7702;51.046;5.184;2023-04-25T10:26:54;9.10;99.90
15203;DHT22;7702;51.046;5.184;2023-04-25T10:29:25;9.20;99.90
15203;DHT22;7702;51.046;5.184;2023-04-25T10:31:51;9.10;99.90
15203;DHT22;7702;51.046;5.184;2023-04-25T10:34:17;9.30;99.90
15203;DHT22;7702;51.046;5.184;2023-04-25T10:36:49;9.60;99.90
15203;DHT22;7702;51.046;5.184;2023-04-25T10:39:24;9.70;99.90
15203;DHT22;7702;51.046;5.184;2023-04-25T10:41:56;9.70;99.90
15203;DHT22;7702;51.046;5.184;2023-04-25T10:44:22;9.90;99.90
15203;DHT22;7702;51.046;5.184;2023-04-25T10:46:48;9.80;99.90
15203;DHT22;7702;51.046;5.184;2023-04-25T10:54:55;10.60;99.90
15203;DHT22;7702;51.046;5.184;2023-04-25T10:57:28;10.90;99.90
15203;DHT22;7702;51.046;5.184;2023-04-25T10:59:59;11.10;99.90
15203;DHT22;7702;51.046;5.184;2023-04-25T11:02:26;11.30;99.90
15203;DHT22;7702;51.046;5.184;2023-04-25T11:04:54;11.60;99.90
15203;DHT22;7702;51.046;5.184;2023-04-25T11:07:59;11.90;99.90
15203;DHT22;7702;51.046;5.184;2023-04-25T11:10:32;11.40;99.90
15203;DHT22;7702;51.046;5.184;2023-04-25T11:13:00;11.30;99.90
15203;DHT22;7702;51.046;5.184;2023-04-25T11:15:27;11.90;99.90
15203;DHT22;7702;51.046;5.184;2023-04-25T11:17:53;12.90;99.90
15203;DHT22;7702;51.046;5.184;2023-04-25T11:20:19;13.20;99.90
15203;DHT22;7702;51.046;5.184;2023-04-25T11:22:46;13.70;99.90
15203;DHT22;7702;51.046;5.184;2023-04-25T11:25:13;13.90;99.90
15203;DHT22;7702;51.046;5.184;2023-04-25T11:27:56;14.40;99.90
15203;DHT22;7702;51.046;5.184;2023-04-25T11:30:24;14.80;99.90
15203;DHT22;7702;51.046;5.184;2023-04-25T11:32:50;14.90;99.90
15203;DHT22;7702;51.046;5.184;2023-04-25T11:35:18;14.70;99.90
15203;DHT22;7702;51.046;5.184;2023-04-25T11:37:44;15.20;99.90
15203;DHT22;7702;51.046;5.184;2023-04-25T11:40:11;15.30;99.90
15203;DHT22;7702;51.046;5.184;2023-04-25T11:42:44;14.40;99.90
15203;DHT22;7702;51.046;5.184;2023-04-25T11:45:11;13.90;99.90
15203;DHT22;7702;51.046;5.184;2023-04-25T11:47:37;13.70;99.90
15203;DHT22;7702;51.046;5.184;2023-04-25T11:50:05;13.10;99.90
15203;DHT22;7702;51.046;5.184;2023-04-25T11:52:45;12.30;99.90
15203;DHT22;7702;51.046;5.184;2023-04-25T11:55:16;11.90;99.90
15203;DHT22;7702;51.046;5.184;2023-04-25T11:57:44;11.00;99.90
15203;DHT22;7702;51.046;5.184;2023-04-25T12:00:12;10.00;99.90
15203;DHT22;7702;51.046;5.184;2023-04-25T12:02:46;9.20;99.90
15203;DHT22;7702;51.046;5.184;2023-04-25T12:05:13;8.80;99.90
15203;DHT22;7702;51.046;5.184;2023-04-25T12:07:39;8.90;99.90
15203;DHT22;7702;51.046;5.184;2023-04-25T12:10:10;9.10;99.90
15203;DHT22;7702;51.046;5.184;2023-04-25T12:12:37;9.50;99.90
15203;DHT22;7702;51.046;5.184;2023-04-25T12:17:51;10.20;99.90
15203;DHT22;7702;51.046;5.184;2023-04-25T12:20:19;10.40;99.90
15203;DHT22;7702;51.046;5.184;2023-04-25T12:22:47;10.70;99.90
15203;DHT22;7702;51.046;5.184;2023-04-25T12:25:39;11.30;99.90
15203;DHT22;7702;51.046;5.184;2023-04-25T12:28:21;11.70;99.90
15203;DHT22;7702;51.046;5.184;2023-04-25T12:31:02;12.40;99.90
15203;DHT22;7702;51.046;5.184;2023-04-25T12:33:33;13.50;99.90
15203;DHT22;7702;51.046;5.184;2023-04-25T12:35:59;13.50;99.90
15203;DHT22;7702;51.046;5.184;2023-04-25T12:38:30;13.60;99.90
15203;DHT22;7702;51.046;5.184;2023-04-25T12:40:59;13.20;99.90
15203;DHT22;7702;51.046;5.184;2023-04-25T12:43:26;13.30;99.90
15203;DHT22;7702;51.046;5.184;2023-04-25T12:45:53;13.30;99.90
15203;DHT22;7702;51.046;5.184;2023-04-25T12:48:19;12.90;99.90
15203;DHT22;7702;51.046;5.184;2023-04-25T12:50:46;12.40;99.90
15203;DHT22;7702;51.046;5.184;2023-04-25T12:53:18;12.20;99.90
15203;DHT22;7702;51.046;5.184;2023-04-25T12:55:45;11.90;99.90
15203;DHT22;7702;51.046;5.184;2023-04-25T12:58:12;11.80;99.90
15203;DHT22;7702;51.046;5.184;2023-04-25T13:00:38;11.50;99.90
15203;DHT22;7702;51.046;5.184;2023-04-25T13:03:04;11.20;99.90
15203;DHT22;7702;51.046;5.184;2023-04-25T13:05:30;10.90;99.90
15203;DHT22;7702;51.046;5.184;2023-04-25T13:07:56;11.00;99.90
15203;DHT22;7702;51.046;5.184;2023-04-25T13:10:22;10.90;99.90
15203;DHT22;7702;51.046;5.184;2023-04-25T13:12:48;11.10;99.90
15203;DHT22;7702;51.046;5.184;2023-04-25T13:15:14;11.30;99.90
15203;DHT22;7702;51.046;5.184;2023-04-25T13:17:41;11.50;99.90
15203;DHT22;7702;51.046;5.184;2023-04-25T13:20:07;12.00;99.90
15203;DHT22;7702;51.046;5.184;2023-04-25T13:22:38;12.40;99.90
15203;DHT22;7702;51.046;5.184;2023-04-25T13:25:05;13.00;99.90
15203;DHT22;7702;51.046;5.184;2023-04-25T13:27:32;13.10;99.90
15203;DHT22;7702;51.046;5.184;2023-04-25T13:29:59;12.80;99.90
15203;DHT22;7702;51.046;5.184;2023-04-25T13:32:25;12.40;99.90
15203;DHT22;7702;51.046;5.184;2023-04-25T13:34:51;12.00;99.90
15203;DHT22;7702;51.046;5.184;2023-04-25T13:37:18;12.30;99.90
15203;DHT22;7702;51.046;5.184;2023-04-25T13:39:44;13.00;99.90
15203;DHT22;7702;51.046;5.184;2023-04-25T13:42:10;13.80;99.90
15203;DHT22;7702;51.046;5.184;2023-04-25T13:44:36;13.70;96.20
15203;DHT22;7702;51.046;5.184;2023-04-25T13:47:02;13.00;94.50
15203;DHT22;7702;51.046;5.184;2023-04-25T13:49:28;13.00;99.50
15203;DHT22;7702;51.046;5.184;2023-04-25T13:51:53;13.10;99.90
15203;DHT22;7702;51.046;5.184;2023-04-25T13:54:19;13.80;99.90
15203;DHT22;7702;51.046;5.184;2023-04-25T13:56:45;13.60;99.90
15203;DHT22;7702;51.046;5.184;2023-04-25T13:59:11;13.40;99.90
15203;DHT22;7702;51.046;5.184;2023-04-25T14:01:36;13.00;99.90
15203;DHT22;7702;51.046;5.184;2023-04-25T14:04:02;12.90;99.90
15203;DHT22;7702;51.046;5.184;2023-04-25T14:06:32;12.40;99.90
15203;DHT22;7702;51.046;5.184;2023-04-25T14:08:58;12.30;99.90
15203;DHT22;7702;51.046;5.184;2023-04-25T14:11:26;12.10;99.90
15203;DHT22;7702;51.046;5.184;2023-04-25T14:13:51;11.90;99.90
15203;DHT22;7702;51.046;5.184;2023-04-25T14:16:17;11.80;99.90
15203;DHT22;7702;51.046;5.184;2023-04-25T14:18:43;12.40;99.90
15203;DHT22;7702;51.046;5.184;2023-04-25T14:21:09;13.70;99.90
15203;DHT22;7702;51.046;5.184;2023-04-25T14:23:35;13.70;99.90
15203;DHT22;7702;51.046;5.184;2023-04-25T14:26:01;13.20;99.90
15203;DHT22;7702;51.046;5.184;2023-04-25T14:28:27;12.80;99.90
15203;DHT22;7702;51.046;5.184;2023-04-25T14:30:53;12.70;99.90
15203;DHT22;7702;51.046;5.184;2023-04-25T14:33:18;12.50;99.90
15203;DHT22;7702;51.046;5.184;2023-04-25T14:35:44;12.00;99.90
15203;DHT22;7702;51.046;5.184;2023-04-25T14:38:10;12.00;99.90
15203;DHT22;7702;51.046;5.184;2023-04-25T14:40:35;11.80;99.90
15203;DHT22;7702;51.046;5.184;2023-04-25T14:43:02;11.80;99.90
15203;DHT22;7702;51.046;5.184;2023-04-25T14:45:28;12.00;99.90
15203;DHT22;7702;51.046;5.184;2023-04-25T14:47:53;11.80;99.90
15203;DHT22;7702;51.046;5.184;2023-04-25T14:50:19;12.10;99.90
15203;DHT22;7702;51.046;5.184;2023-04-25T14:52:45;12.30;99.90
15203;DHT22;7702;51.046;5.184;2023-04-25T14:55:11;12.10;99.90
15203;DHT22;7702;51.046;5.184;2023-04-25T14:57:37;12.30;99.90
15203;DHT22;7702;51.046;5.184;2023-04-25T15:00:05;12.20;99.90
15203;DHT22;7702;51.046;5.184;2023-04-25T15:02:35;11.80;99.90
15203;DHT22;7702;51.046;5.184;2023-04-25T15:05:01;11.50;99.90
15203;DHT22;7702;51.046;5.184;2023-04-25T15:07:28;11.30;99.90
15203;DHT22;7702;51.046;5.184;2023-04-25T15:09:54;11.20;99.90
15203;DHT22;7702;51.046;5.184;2023-04-25T15:12:21;11.10;99.90
15203;DHT22;7702;51.046;5.184;2023-04-25T15:14:47;10.90;99.90
15203;DHT22;7702;51.046;5.184;2023-04-25T15:17:13;10.90;99.90
15203;DHT22;7702;51.046;5.184;2023-04-25T15:19:39;10.90;99.90
15203;DHT22;7702;51.046;5.184;2023-04-25T15:22:05;10.90;99.90
15203;DHT22;7702;51.046;5.184;2023-04-25T15:24:32;11.00;99.90
15203;DHT22;7702;51.046;5.184;2023-04-25T15:26:57;11.00;99.90
15203;DHT22;7702;51.046;5.184;2023-04-25T15:29:23;11.00;99.90
15203;DHT22;7702;51.046;5.184;2023-04-25T15:31:49;11.50;99.90
15203;DHT22;7702;51.046;5.184;2023-04-25T15:34:15;11.70;99.90
15203;DHT22;7702;51.046;5.184;2023-04-25T15:36:41;11.80;99.90
15203;DHT22;7702;51.046;5.184;2023-04-25T15:39:07;12.50;99.90
15203;DHT22;7702;51.046;5.184;2023-04-25T15:41:33;13.00;99.90
15203;DHT22;7702;51.046;5.184;2023-04-25T15:43:59;14.00;99.90
15203;DHT22;7702;51.046;5.184;2023-04-25T15:46:28;14.50;99.90
15203;DHT22;7702;51.046;5.184;2023-04-25T15:48:57;14.30;99.90
15203;DHT22;7702;51.046;5.184;2023-04-25T15:51:22;14.70;99.90
15203;DHT22;7702;51.046;5.184;2023-04-25T15:53:48;14.60;99.90
15203;DHT22;7702;51.046;5.184;2023-04-25T15:56:14;14.90;99.90
15203;DHT22;7702;51.046;5.184;2023-04-25T15:58:40;15.40;99.90
15203;DHT22;7702;51.046;5.184;2023-04-25T16:01:05;14.90;99.20
15203;DHT22;7702;51.046;5.184;2023-04-25T16:03:31;14.80;99.90
15203;DHT22;7702;51.046;5.184;2023-04-25T16:05:57;15.20;99.90